createdAt,value
2023-03-23T00:03:46.561Z,13.19
2023-03-23T00:07:47.283Z,13.07
2023-03-23T00:11:48.005Z,13.14
2023-03-23T00:15:48.767Z,12.77
2023-03-23T00:19:49.515Z,12.76
2023-03-23T00:23:50.237Z,12.82
2023-03-23T00:27:50.993Z,12.66
2023-03-23T00:31:51.763Z,12.48
2023-03-23T00:35:52.530Z,12.42
2023-03-23T00:39:53.204Z,12.62
2023-03-23T00:43:53.927Z,12.69
2023-03-23T00:47:54.641Z,12.87
2023-03-23T00:51:55.390Z,12.94
2023-03-23T00:55:56.130Z,12.80
2023-03-23T00:59:56.942Z,12.82
2023-03-23T01:03:58.683Z,12.76
2023-03-23T01:07:58.409Z,12.83
2023-03-23T01:11:59.145Z,12.93
2023-03-23T01:15:59.883Z,12.90
2023-03-23T01:20:00.596Z,12.84
2023-03-23T01:24:01.310Z,12.90
2023-03-23T01:28:02.002Z,12.91
2023-03-23T01:32:02.710Z,12.84
2023-03-23T01:36:03.475Z,12.66
2023-03-23T01:40:04.213Z,12.31
2023-03-23T01:44:04.993Z,12.46
2023-03-23T01:48:05.740Z,12.45
2023-03-23T01:52:06.518Z,12.35
2023-03-23T01:56:07.307Z,12.39
2023-03-23T02:00:08.080Z,12.46
2023-03-23T02:04:08.836Z,12.48
2023-03-23T02:08:09.585Z,12.27
2023-03-23T02:12:10.391Z,12.31
2023-03-23T02:16:11.154Z,11.27
2023-03-23T02:20:11.973Z,11.42
2023-03-23T02:24:12.780Z,11.55
2023-03-23T02:28:13.646Z,11.76
2023-03-23T02:32:14.537Z,12.08
2023-03-23T02:36:15.395Z,12.29
2023-03-23T02:40:16.405Z,12.18
2023-03-23T05:08:50.824Z,11.97
2023-03-23T05:16:52.706Z,10.97
2023-03-23T05:20:53.585Z,10.90
2023-03-23T05:24:54.509Z,10.83
2023-03-23T05:28:55.433Z,11.02
2023-03-23T05:32:57.353Z,11.06
2023-03-23T05:36:57.229Z,10.73
2023-03-23T05:40:58.098Z,10.17
2023-03-23T05:44:58.971Z,10.10
2023-03-23T05:48:59.995Z,10.89
2023-03-23T05:53:00.959Z,11.04
2023-03-23T05:57:02.069Z,10.55
2023-03-23T06:01:03.140Z,10.16
2023-03-23T06:05:04.183Z,10.34
2023-03-23T06:09:06.620Z,10.49
2023-03-23T06:13:06.273Z,10.55
2023-03-23T06:17:07.322Z,10.69
2023-03-23T06:21:08.387Z,10.65
2023-03-23T06:29:09.903Z,10.70
2023-03-23T06:33:10.719Z,11.08
2023-03-23T06:37:11.408Z,11.14
2023-03-23T06:41:12.182Z,11.35
2023-03-23T06:45:13.062Z,11.65
2023-03-23T06:49:13.926Z,11.62
2023-03-23T06:53:14.738Z,11.07
2023-03-23T06:57:15.575Z,11.38
2023-03-23T07:01:16.473Z,11.72
2023-03-23T07:05:17.417Z,11.70
2023-03-23T07:09:18.360Z,11.82
2023-03-23T07:13:19.265Z,12.31
2023-03-23T07:17:20.352Z,11.87
2023-03-23T07:21:20.991Z,11.35
2023-03-23T07:25:21.794Z,11.97
2023-03-23T07:29:22.754Z,12.34
2023-03-23T07:33:23.590Z,11.89
2023-03-23T07:37:24.453Z,12.14
2023-03-23T07:41:25.359Z,12.44
2023-03-23T07:45:27.196Z,12.63
2023-03-23T07:49:27.100Z,12.76
2023-03-23T07:53:27.840Z,12.83
2023-03-23T07:57:28.544Z,13.22
2023-03-23T08:01:29.204Z,13.15
2023-03-23T08:05:29.852Z,13.32
2023-03-23T08:09:30.551Z,13.52
2023-03-23T08:13:31.245Z,13.45
2023-03-23T08:17:31.872Z,13.48
2023-03-23T08:21:33.573Z,13.66
2023-03-23T08:25:33.293Z,13.63
2023-03-23T08:29:34.173Z,13.77
2023-03-23T08:33:34.864Z,13.88
2023-03-23T08:37:35.557Z,13.77
2023-03-23T08:41:36.234Z,14.21
2023-03-23T08:45:36.846Z,14.15
2023-03-23T08:49:37.495Z,14.71
2023-03-23T08:53:38.192Z,14.86
2023-03-23T08:57:38.880Z,15.06
2023-03-23T09:01:39.543Z,15.14
2023-03-23T09:05:40.392Z,15.29
2023-03-23T09:09:41.633Z,15.64
2023-03-23T09:13:42.572Z,15.87
2023-03-23T09:17:42.078Z,15.87
2023-03-23T09:21:43.201Z,16.08
2023-03-23T09:25:43.458Z,15.74
2023-03-23T09:29:43.534Z,15.66
2023-03-23T09:33:47.162Z,16.15
2023-03-23T09:37:44.423Z,16.57
2023-03-23T09:41:44.892Z,16.75
2023-03-23T09:45:45.386Z,16.80
2023-03-23T09:53:46.225Z,17.23
2023-03-23T11:09:54.052Z,18.92
2023-03-23T11:13:54.385Z,19.01
2023-03-23T11:17:54.707Z,18.74
2023-03-23T11:21:55.221Z,18.99
2023-03-23T11:25:55.731Z,19.02
2023-03-23T11:29:58.685Z,19.24
2023-03-23T11:34:05.977Z,19.27
2023-03-23T11:57:58.412Z,19.60
2023-03-23T12:05:58.994Z,19.85
2023-03-23T12:09:59.304Z,19.86
2023-03-23T12:13:59.679Z,19.79
2023-03-23T12:18:00.116Z,20.16
2023-03-23T12:22:00.533Z,20.58
2023-03-23T12:30:01.266Z,20.78
2023-03-23T13:02:04.124Z,21.58
2023-03-23T13:10:05.385Z,22.13
2023-03-23T13:14:04.859Z,21.71
2023-03-23T13:26:05.817Z,21.93
2023-03-23T14:50:11.337Z,23.77
2023-03-23T15:10:10.823Z,22.92
2023-03-23T15:14:10.975Z,22.97
2023-03-23T15:18:11.365Z,22.65
2023-03-23T15:22:12.401Z,22.55
2023-03-23T15:26:11.641Z,22.24
2023-03-23T15:30:11.745Z,22.17
2023-03-23T15:34:11.892Z,22.27
2023-03-23T15:38:12.059Z,22.04
2023-03-23T15:42:12.254Z,21.55
2023-03-23T15:46:12.435Z,21.33
2023-03-23T15:50:12.617Z,21.40
2023-03-23T15:58:13.003Z,21.34
2023-03-23T16:02:13.305Z,21.38
2023-03-23T16:06:13.396Z,21.24
2023-03-23T16:10:14.602Z,21.24
2023-03-23T16:14:13.792Z,21.11
2023-03-23T16:18:14.107Z,20.92
2023-03-23T16:22:15.162Z,20.95
2023-03-23T16:26:14.762Z,20.68
2023-03-23T16:30:15.121Z,20.75
2023-03-23T16:34:15.518Z,20.74
2023-03-23T16:38:16.370Z,20.72
2023-03-23T16:42:16.352Z,20.82
2023-03-23T16:46:16.858Z,20.86
2023-03-23T16:50:17.241Z,20.89
2023-03-23T16:54:17.616Z,20.86
2023-03-23T16:58:18.330Z,20.83
2023-03-23T17:02:18.563Z,20.76
2023-03-23T17:06:18.983Z,20.67
2023-03-23T17:10:19.229Z,20.58
2023-03-23T17:14:19.449Z,20.55
2023-03-23T17:18:19.658Z,20.24
2023-03-23T17:22:19.892Z,19.92
2023-03-23T17:26:20.135Z,19.76
2023-03-23T17:30:20.851Z,19.82
2023-03-23T17:34:20.661Z,19.84
2023-03-23T17:38:21.351Z,19.72
2023-03-23T17:42:21.219Z,19.75
2023-03-23T17:46:21.533Z,19.72
2023-03-23T17:50:21.857Z,19.65
2023-03-23T17:54:22.125Z,19.60
2023-03-23T17:58:22.530Z,19.56
2023-03-23T18:02:22.877Z,19.40
2023-03-23T18:06:23.038Z,19.37
2023-03-23T18:10:23.422Z,19.30
2023-03-23T18:14:23.761Z,19.24
2023-03-23T18:18:24.053Z,19.16
2023-03-23T18:22:24.393Z,19.07
2023-03-23T18:26:24.750Z,19.03
2023-03-23T18:30:25.109Z,19.01
2023-03-23T18:34:25.463Z,18.99
2023-03-23T18:38:26.001Z,18.85
2023-03-23T18:42:26.614Z,18.82
2023-03-23T18:46:27.079Z,18.78
2023-03-23T18:50:27.682Z,18.78
2023-03-23T18:54:28.200Z,18.71
2023-03-23T18:58:28.778Z,18.67
2023-03-23T19:02:29.461Z,18.67
2023-03-23T19:06:29.934Z,18.62
2023-03-23T19:10:30.889Z,18.58
2023-03-23T19:14:31.184Z,18.55
2023-03-23T19:18:31.796Z,18.54
2023-03-23T19:22:32.440Z,18.50
2023-03-23T19:26:36.695Z,18.46
2023-03-23T19:30:33.419Z,18.41
2023-03-23T19:34:33.897Z,18.36
2023-03-23T19:38:34.275Z,18.33
2023-03-23T19:42:34.643Z,18.26
2023-03-23T19:46:35.035Z,18.22
2023-03-23T19:50:35.409Z,18.17
2023-03-23T19:54:35.853Z,18.06
2023-03-23T19:58:36.192Z,18.06
2023-03-23T20:02:37.264Z,18.02
2023-03-23T20:06:37.684Z,17.99
2023-03-23T20:10:37.409Z,17.99
2023-03-23T20:14:37.802Z,17.96
2023-03-23T20:18:38.380Z,17.92
2023-03-23T20:22:38.835Z,17.82
2023-03-23T20:26:39.180Z,17.51
2023-03-23T20:30:39.582Z,17.49
2023-03-23T20:34:40.413Z,17.50
2023-03-23T20:38:40.435Z,17.49
2023-03-23T20:42:40.872Z,17.49
2023-03-23T20:46:41.316Z,17.37
2023-03-23T20:50:41.764Z,17.33
2023-03-23T20:54:42.198Z,17.25
2023-03-23T20:58:42.657Z,17.19
2023-03-23T21:02:43.164Z,17.18
2023-03-23T21:06:43.576Z,17.12
2023-03-23T21:10:45.150Z,16.95
2023-03-23T21:14:44.531Z,16.92
2023-03-23T21:18:45.020Z,16.91
2023-03-23T21:22:45.516Z,16.88
2023-03-23T21:26:46.014Z,16.81
2023-03-23T21:30:46.798Z,16.78
2023-03-23T21:34:47.204Z,16.75
2023-03-23T21:38:47.888Z,16.75
2023-03-23T21:42:48.562Z,16.71
2023-03-23T21:46:49.260Z,16.50
2023-03-23T21:50:49.882Z,16.59
2023-03-23T21:54:50.576Z,16.56
2023-03-23T21:58:51.285Z,16.59
2023-03-23T22:02:51.997Z,16.53
2023-03-23T22:06:52.664Z,16.53
2023-03-23T22:11:01.387Z,16.53
2023-03-23T22:14:54.813Z,16.53
2023-03-23T22:18:54.301Z,16.53
2023-03-23T22:22:54.931Z,16.53
2023-03-23T22:26:55.619Z,16.49
2023-03-23T22:30:56.333Z,16.50
2023-03-23T22:34:57.463Z,16.42
2023-03-23T22:38:57.760Z,16.40
2023-03-23T22:42:58.485Z,16.35
2023-03-23T22:46:59.945Z,16.30
2023-03-23T22:50:59.987Z,16.25
2023-03-23T22:55:00.680Z,16.23
2023-03-23T22:59:01.357Z,16.20
2023-03-23T23:03:02.123Z,16.18
2023-03-23T23:07:12.585Z,16.13
2023-03-23T23:11:03.330Z,16.09
2023-03-23T23:15:03.835Z,16.08
2023-03-23T23:19:04.438Z,16.02
2023-03-23T23:23:05.464Z,15.97
2023-03-23T23:27:05.943Z,15.94
2023-03-23T23:31:06.513Z,15.90
2023-03-23T23:35:07.056Z,15.84
2023-03-23T23:39:07.560Z,15.77
2023-03-23T23:43:08.101Z,15.74
2023-03-23T23:47:08.640Z,15.64
2023-03-23T23:51:09.466Z,15.58
2023-03-23T23:55:09.692Z,15.50
2023-03-23T23:59:10.229Z,15.46
